Dixie Vandal — WDC2682 — position and weather

sailwx.info

Track history (hours):
 
Tides and Currents Weather Stations Pressure Air Temp Water Temp Dewpoint Dewpoint Depression Visibility Wind Speed Wind Dir Waves Ship Positions

Dixie Vandal

Owner: Kirby Inland Marine LP, Houston, TX. More information available from US FCC via Universal Licensing System and Coast Guard Vessel Documentation Center.

Last reported at 2018-Jun-24 22:49 UTC. Time now 2018-Jun-25 05:43 UTC.
Position N 29°43' W 095°01'.

Length 113 m; draft 2.9 m.

Type: . MMSI: 366996360.

Date/timePositionNaut miles runAvg speedWind from/ knotsBaromVisibWave heightAir tempDewpointWater temp
2018-Jun-24 22:49N 29°43' W 095°01'2 6.3
2018-Jun-24 22:30N 29°42' W 094°59'3 6.9
2018-Jun-24 22:01N 29°38' W 094°58'4 7.2
2018-Jun-24 21:30N 29°35' W 094°56'4 7.2
2018-Jun-24 21:00N 29°32' W 094°54'9 7.2
2018-Jun-24 19:47N 29°24' W 094°49'2 7.1
2018-Jun-24 19:30N 29°22' W 094°48'3 6.5
2018-Jun-24 19:01N 29°20' W 094°47'1 0.6
2018-Jun-24 16:24N 29°19' W 094°48'1 0.0
2018-Jun-23 18:28N 29°19' W 094°47'1 0.1
2018-Jun-23 13:10N 29°19' W 094°48'0 1.9
2018-Jun-23 13:00N 29°19' W 094°47'0 0.0
2018-Jun-23 04:51N 29°19' W 094°47'0 0.0
2018-Jun-23 04:18N 29°19' W 094°47'0 0.0
2018-Jun-23 03:50N 29°19' W 094°47'0 0.1
2018-Jun-23 03:30N 29°19' W 094°47'2 4.7
2018-Jun-23 03:00N 29°21' W 094°45'1 1.3
2018-Jun-23 02:14N 29°21' W 094°44'0 0.0
2018-Jun-22 21:14N 29°21' W 094°44'0 0.1
2018-Jun-22 20:59N 29°21' W 094°44'0 0.0
2018-Jun-22 20:29N 29°21' W 094°44'0 0.0
2018-Jun-22 19:44N 29°21' W 094°44'0 0.0
2018-Jun-22 19:29N 29°21' W 094°44'0 0.0
2018-Jun-22 17:35N 29°21' W 094°45'0 1.7
2018-Jun-22 17:28N 29°21' W 094°45'1 1.3
2018-Jun-22 17:00N 29°21' W 094°45'2 3.2
2018-Jun-22 16:30N 29°21' W 094°47'3 6.4
2018-Jun-22 15:59N 29°22' W 094°51'3 4.7
2018-Jun-22 15:26N 29°22' W 094°54'1 1.7
2018-Jun-22 15:00N 29°22' W 094°54'0 0.0
2018-Jun-22 14:30N 29°22' W 094°54'0 0.0
2018-Jun-22 14:00N 29°22' W 094°54'0 0.0
2018-Jun-22 13:30N 29°22' W 094°54'0 0.0
2018-Jun-22 13:00N 29°22' W 094°54'0 0.0
2018-Jun-22 12:30N 29°22' W 094°54'0 0.0
2018-Jun-22 12:00N 29°22' W 094°54'0 0.0
2018-Jun-22 11:30N 29°22' W 094°54'0 0.0
2018-Jun-22 11:00N 29°22' W 094°54'0 0.0
2018-Jun-22 10:29N 29°22' W 094°54'0 0.0
2018-Jun-22 10:00N 29°22' W 094°54'0 0.0
2018-Jun-22 09:30N 29°22' W 094°54'0 0.0
2018-Jun-22 09:00N 29°22' W 094°54'0 0.0
2018-Jun-22 08:30N 29°22' W 094°54'0 0.0
2018-Jun-22 08:00N 29°22' W 094°54'0 0.0
2018-Jun-22 07:30N 29°22' W 094°54'0 0.0
2018-Jun-22 07:00N 29°22' W 094°54'0 0.0
2018-Jun-22 06:30N 29°22' W 094°54'0 0.0
2018-Jun-22 06:00N 29°22' W 094°54'0 0.0
2018-Jun-22 05:30N 29°22' W 094°54'0 0.0
2018-Jun-22 05:00N 29°22' W 094°54'0 0.0
2018-Jun-22 04:30N 29°22' W 094°54'0 0.0
2018-Jun-22 04:00N 29°22' W 094°54'0 0.0
2018-Jun-22 03:30N 29°22' W 094°54'0 0.0
2018-Jun-22 03:00N 29°22' W 094°54'0 0.0
2018-Jun-22 02:30N 29°22' W 094°54'0 0.0
2018-Jun-22 02:00N 29°22' W 094°54'0 0.0
2018-Jun-22 01:30N 29°22' W 094°54'0 0.0
2018-Jun-22 01:00N 29°22' W 094°54'0 0.0
2018-Jun-22 00:30N 29°22' W 094°54'0 0.2
2018-Jun-22 00:00N 29°22' W 094°54'1 1.9
2018-Jun-21 23:26N 29°23' W 094°54'0 0.0
2018-Jun-21 22:48N 29°23' W 094°54'1 3.9
2018-Jun-21 22:30N 29°22' W 094°54'1 2.3
2018-Jun-21 21:59N 29°22' W 094°53'0 0.7
2018-Jun-21 21:30N 29°23' W 094°53'3 5.8
2018-Jun-21 20:58N 29°22' W 094°50'1 2.8
2018-Jun-21 20:30N 29°23' W 094°49'9 5.9
2018-Jun-21 18:58N 29°31' W 094°53'3 6.1
2018-Jun-21 18:29N 29°34' W 094°55'3 6.1
2018-Jun-21 17:54N 29°37' W 094°57'3 6.1
2018-Jun-21 17:27N 29°39' W 094°58'8 6.0
2018-Jun-21 16:09N 29°45' W 095°04'  
2018-Jun-18 06:01N 29°42' W 095°01'5 5.7
2018-Jun-18 05:07N 29°38' W 094°58'1 6.5
2018-Jun-18 05:00N 29°37' W 094°57'17 6.2
2018-Jun-18 02:18N 29°22' W 094°48'2 5.4
2018-Jun-18 02:00N 29°21' W 094°47'0 0.1
2018-Jun-18 01:24N 29°21' W 094°47'0 0.0
2018-Jun-18 00:54N 29°21' W 094°47'0 0.0
2018-Jun-18 00:21N 29°21' W 094°47'0 0.0
2018-Jun-17 22:00N 29°21' W 094°47'0 0.0
2018-Jun-17 21:24N 29°21' W 094°47'0 0.0
2018-Jun-17 20:54N 29°21' W 094°47'0 0.0
2018-Jun-17 20:27N 29°21' W 094°47'0 0.0
2018-Jun-17 20:00N 29°21' W 094°47'0 0.3
2018-Jun-17 19:23N 29°21' W 094°47'2 5.3
2018-Jun-17 18:55N 29°19' W 094°48'0 0.3
2018-Jun-17 17:17N 29°19' W 094°48'0 0.0
2018-Jun-17 16:59N 29°19' W 094°48'0 0.0
2018-Jun-17 16:23N 29°19' W 094°48'0 0.0
2018-Jun-17 15:59N 29°19' W 094°48'16 1.2
2018-Jun-17 02:49N 29°33' W 094°55'3 5.9
2018-Jun-17 02:21N 29°36' W 094°57'2 6.2
2018-Jun-17 02:00N 29°38' W 094°58'3 6.3
2018-Jun-17 01:29N 29°41' W 094°59'  
Track history (hours):
 
Tides and Currents Weather Stations Pressure Air Temp Water Temp Dewpoint Dewpoint Depression Visibility Wind Speed Wind Dir Waves Ship Positions

Dixie Vandal

Owner: Kirby Inland Marine LP, Houston, TX. More information available from US FCC via Universal Licensing System and Coast Guard Vessel Documentation Center.

Last reported at 2018-Jun-24 22:49 UTC. Time now 2018-Jun-25 05:43 UTC.
Position N 29°43' W 095°01'.

Length 113 m; draft 2.9 m.

Type: . MMSI: 366996360.

Date/timePositionNaut miles runAvg speedWind from/ knotsBaromVisibWave heightAir tempDewpointWater temp
2018-Jun-24 22:49N 29°43' W 095°01'2 6.3
2018-Jun-24 22:30N 29°42' W 094°59'3 6.9
2018-Jun-24 22:01N 29°38' W 094°58'4 7.2
2018-Jun-24 21:30N 29°35' W 094°56'4 7.2
2018-Jun-24 21:00N 29°32' W 094°54'9 7.2
2018-Jun-24 19:47N 29°24' W 094°49'2 7.1
2018-Jun-24 19:30N 29°22' W 094°48'3 6.5
2018-Jun-24 19:01N 29°20' W 094°47'1 0.6
2018-Jun-24 16:24N 29°19' W 094°48'1 0.0
2018-Jun-23 18:28N 29°19' W 094°47'1 0.1
2018-Jun-23 13:10N 29°19' W 094°48'0 1.9
2018-Jun-23 13:00N 29°19' W 094°47'0 0.0
2018-Jun-23 04:51N 29°19' W 094°47'0 0.0
2018-Jun-23 04:18N 29°19' W 094°47'0 0.0
2018-Jun-23 03:50N 29°19' W 094°47'0 0.1
2018-Jun-23 03:30N 29°19' W 094°47'2 4.7
2018-Jun-23 03:00N 29°21' W 094°45'1 1.3
2018-Jun-23 02:14N 29°21' W 094°44'0 0.0
2018-Jun-22 21:14N 29°21' W 094°44'0 0.1
2018-Jun-22 20:59N 29°21' W 094°44'0 0.0
2018-Jun-22 20:29N 29°21' W 094°44'0 0.0
2018-Jun-22 19:44N 29°21' W 094°44'0 0.0
2018-Jun-22 19:29N 29°21' W 094°44'0 0.0
2018-Jun-22 17:35N 29°21' W 094°45'0 1.7
2018-Jun-22 17:28N 29°21' W 094°45'1 1.3
2018-Jun-22 17:00N 29°21' W 094°45'2 3.2
2018-Jun-22 16:30N 29°21' W 094°47'3 6.4
2018-Jun-22 15:59N 29°22' W 094°51'3 4.7
2018-Jun-22 15:26N 29°22' W 094°54'1 1.7
2018-Jun-22 15:00N 29°22' W 094°54'0 0.0
2018-Jun-22 14:30N 29°22' W 094°54'0 0.0
2018-Jun-22 14:00N 29°22' W 094°54'0 0.0
2018-Jun-22 13:30N 29°22' W 094°54'0 0.0
2018-Jun-22 13:00N 29°22' W 094°54'0 0.0
2018-Jun-22 12:30N 29°22' W 094°54'0 0.0
2018-Jun-22 12:00N 29°22' W 094°54'0 0.0
2018-Jun-22 11:30N 29°22' W 094°54'0 0.0
2018-Jun-22 11:00N 29°22' W 094°54'0 0.0
2018-Jun-22 10:29N 29°22' W 094°54'0 0.0
2018-Jun-22 10:00N 29°22' W 094°54'0 0.0
2018-Jun-22 09:30N 29°22' W 094°54'0 0.0
2018-Jun-22 09:00N 29°22' W 094°54'0 0.0
2018-Jun-22 08:30N 29°22' W 094°54'0 0.0
2018-Jun-22 08:00N 29°22' W 094°54'0 0.0
2018-Jun-22 07:30N 29°22' W 094°54'0 0.0
2018-Jun-22 07:00N 29°22' W 094°54'0 0.0
2018-Jun-22 06:30N 29°22' W 094°54'0 0.0
2018-Jun-22 06:00N 29°22' W 094°54'0 0.0
2018-Jun-22 05:30N 29°22' W 094°54'0 0.0
2018-Jun-22 05:00N 29°22' W 094°54'0 0.0
2018-Jun-22 04:30N 29°22' W 094°54'0 0.0
2018-Jun-22 04:00N 29°22' W 094°54'0 0.0
2018-Jun-22 03:30N 29°22' W 094°54'0 0.0
2018-Jun-22 03:00N 29°22' W 094°54'0 0.0
2018-Jun-22 02:30N 29°22' W 094°54'0 0.0
2018-Jun-22 02:00N 29°22' W 094°54'0 0.0
2018-Jun-22 01:30N 29°22' W 094°54'0 0.0
2018-Jun-22 01:00N 29°22' W 094°54'0 0.0
2018-Jun-22 00:30N 29°22' W 094°54'0 0.2
2018-Jun-22 00:00N 29°22' W 094°54'1 1.9
2018-Jun-21 23:26N 29°23' W 094°54'0 0.0
2018-Jun-21 22:48N 29°23' W 094°54'1 3.9
2018-Jun-21 22:30N 29°22' W 094°54'1 2.3
2018-Jun-21 21:59N 29°22' W 094°53'0 0.7
2018-Jun-21 21:30N 29°23' W 094°53'3 5.8
2018-Jun-21 20:58N 29°22' W 094°50'1 2.8
2018-Jun-21 20:30N 29°23' W 094°49'9 5.9
2018-Jun-21 18:58N 29°31' W 094°53'3 6.1
2018-Jun-21 18:29N 29°34' W 094°55'3 6.1
2018-Jun-21 17:54N 29°37' W 094°57'3 6.1
2018-Jun-21 17:27N 29°39' W 094°58'8 6.0
2018-Jun-21 16:09N 29°45' W 095°04'  
2018-Jun-18 06:01N 29°42' W 095°01'5 5.7
2018-Jun-18 05:07N 29°38' W 094°58'1 6.5
2018-Jun-18 05:00N 29°37' W 094°57'17 6.2
2018-Jun-18 02:18N 29°22' W 094°48'2 5.4
2018-Jun-18 02:00N 29°21' W 094°47'0 0.1
2018-Jun-18 01:24N 29°21' W 094°47'0 0.0
2018-Jun-18 00:54N 29°21' W 094°47'0 0.0
2018-Jun-18 00:21N 29°21' W 094°47'0 0.0
2018-Jun-17 22:00N 29°21' W 094°47'0 0.0
2018-Jun-17 21:24N 29°21' W 094°47'0 0.0
2018-Jun-17 20:54N 29°21' W 094°47'0 0.0
2018-Jun-17 20:27N 29°21' W 094°47'0 0.0
2018-Jun-17 20:00N 29°21' W 094°47'0 0.3
2018-Jun-17 19:23N 29°21' W 094°47'2 5.3
2018-Jun-17 18:55N 29°19' W 094°48'0 0.3
2018-Jun-17 17:17N 29°19' W 094°48'0 0.0
2018-Jun-17 16:59N 29°19' W 094°48'0 0.0
2018-Jun-17 16:23N 29°19' W 094°48'0 0.0
2018-Jun-17 15:59N 29°19' W 094°48'16 1.2
2018-Jun-17 02:49N 29°33' W 094°55'3 5.9
2018-Jun-17 02:21N 29°36' W 094°57'2 6.2
2018-Jun-17 02:00N 29°38' W 094°58'3 6.3
2018-Jun-17 01:29N 29°41' W 094°59'  

Dump ship's entire track history